createdAt,value
2023-04-25T00:00:23.102Z,0
2023-04-25T00:01:23.106Z,0
2023-04-25T00:02:23.173Z,0
2023-04-25T00:03:23.481Z,0
2023-04-25T00:04:23.445Z,0
2023-04-25T00:05:23.207Z,0
2023-04-25T00:06:23.103Z,0
2023-04-25T00:07:23.116Z,0
2023-04-25T00:08:23.104Z,0
2023-04-25T00:09:23.113Z,0
2023-04-25T00:10:23.102Z,0
2023-04-25T00:11:23.105Z,0
2023-04-25T00:12:23.094Z,0
2023-04-25T00:13:23.207Z,0
2023-04-25T00:14:23.100Z,0
2023-04-25T00:15:23.118Z,0
2023-04-25T00:16:23.169Z,0
2023-04-25T00:17:23.143Z,0
2023-04-25T00:18:23.106Z,0
2023-04-25T00:19:23.101Z,0
2023-04-25T00:20:23.109Z,0
2023-04-25T00:21:23.096Z,0
2023-04-25T00:22:23.096Z,0
2023-04-25T00:23:23.104Z,0
2023-04-25T00:24:23.092Z,0
2023-04-25T00:25:23.128Z,0
2023-04-25T00:26:23.102Z,0
2023-04-25T00:27:23.128Z,0
2023-04-25T00:28:23.104Z,0
2023-04-25T00:29:23.110Z,0
2023-04-25T00:30:23.123Z,0
2023-04-25T00:31:23.165Z,0
2023-04-25T00:32:23.137Z,0
2023-04-25T00:33:23.105Z,0
2023-04-25T00:34:23.101Z,0
2023-04-25T00:35:23.123Z,0
2023-04-25T00:36:23.091Z,0
2023-04-25T00:37:23.102Z,0
2023-04-25T00:38:23.105Z,0
2023-04-25T00:39:23.111Z,0
2023-04-25T00:40:23.111Z,0
2023-04-25T00:41:23.096Z,0
2023-04-25T00:42:23.101Z,0
2023-04-25T00:43:23.102Z,0
2023-04-25T00:44:23.098Z,0
2023-04-25T00:45:23.105Z,0
2023-04-25T00:46:23.115Z,0
2023-04-25T00:47:23.155Z,0
2023-04-25T00:48:23.096Z,0
2023-04-25T00:49:23.097Z,0
2023-04-25T00:50:23.098Z,0
2023-04-25T00:51:23.106Z,0
2023-04-25T00:52:23.099Z,0
2023-04-25T00:53:23.113Z,0
2023-04-25T00:54:23.106Z,0
2023-04-25T00:55:23.124Z,0
2023-04-25T00:56:23.098Z,0
2023-04-25T00:57:23.101Z,0
2023-04-25T00:58:23.106Z,0
2023-04-25T00:59:23.113Z,0
2023-04-25T01:00:23.095Z,0
2023-04-25T01:01:23.211Z,0
2023-04-25T01:02:23.265Z,0
2023-04-25T01:03:23.544Z,0
2023-04-25T01:04:23.250Z,0
2023-04-25T01:05:23.108Z,0
2023-04-25T01:06:23.124Z,0
2023-04-25T01:07:23.106Z,0
2023-04-25T01:08:23.107Z,0
2023-04-25T01:09:23.109Z,0
2023-04-25T01:10:23.105Z,0
2023-04-25T01:11:23.104Z,0
2023-04-25T01:12:23.104Z,0
2023-04-25T01:13:23.094Z,0
2023-04-25T01:14:23.108Z,0
2023-04-25T01:15:23.109Z,0
2023-04-25T01:16:23.119Z,0
2023-04-25T01:17:23.097Z,0
2023-04-25T01:18:23.099Z,0
2023-04-25T01:19:23.093Z,0
2023-04-25T01:20:23.095Z,0
2023-04-25T01:21:23.090Z,0
2023-04-25T01:22:23.110Z,0
2023-04-25T01:23:23.094Z,0
2023-04-25T01:24:23.130Z,0
2023-04-25T01:25:23.099Z,0
2023-04-25T01:26:23.091Z,0
2023-04-25T01:27:23.089Z,0
2023-04-25T01:28:23.105Z,0
2023-04-25T01:29:23.104Z,0
2023-04-25T01:30:23.084Z,0
2023-04-25T01:31:23.119Z,0
2023-04-25T01:32:23.128Z,0
2023-04-25T01:33:23.089Z,0
2023-04-25T01:34:23.108Z,0
2023-04-25T01:35:23.102Z,0
2023-04-25T01:36:23.102Z,0
2023-04-25T01:37:23.098Z,0
2023-04-25T01:38:23.092Z,0
2023-04-25T01:39:23.097Z,0
2023-04-25T01:40:23.128Z,0
2023-04-25T01:41:24.222Z,0
2023-04-25T01:42:23.100Z,0
2023-04-25T01:43:23.094Z,0
2023-04-25T01:44:23.100Z,0
2023-04-25T01:45:23.097Z,0
2023-04-25T01:46:23.113Z,0
2023-04-25T01:47:23.112Z,0
2023-04-25T01:48:23.082Z,0
2023-04-25T01:49:23.101Z,0
2023-04-25T01:50:23.097Z,0
2023-04-25T01:51:23.083Z,0
2023-04-25T01:52:23.092Z,0
2023-04-25T01:53:23.094Z,0
2023-04-25T01:54:23.091Z,0
2023-04-25T01:55:23.097Z,0
2023-04-25T01:56:23.096Z,0
2023-04-25T01:57:23.081Z,0
2023-04-25T01:58:23.076Z,0
2023-04-25T01:59:23.103Z,0
2023-04-25T02:00:23.085Z,0
2023-04-25T02:01:23.094Z,0
2023-04-25T02:02:23.269Z,0
2023-04-25T02:03:23.427Z,0
2023-04-25T02:04:23.194Z,0
2023-04-25T02:05:23.166Z,0
2023-04-25T02:06:23.104Z,0
2023-04-25T02:07:23.104Z,0
2023-04-25T02:08:23.093Z,0
2023-04-25T02:09:23.090Z,0
2023-04-25T02:10:23.105Z,0
2023-04-25T02:11:23.090Z,0
2023-04-25T02:12:23.086Z,0
2023-04-25T02:13:23.098Z,0
2023-04-25T02:14:23.102Z,0
2023-04-25T02:15:23.094Z,0
2023-04-25T02:16:23.245Z,0
2023-04-25T02:17:23.094Z,0
2023-04-25T02:18:23.081Z,0
2023-04-25T02:19:23.082Z,0
2023-04-25T02:20:23.096Z,0
2023-04-25T02:21:23.090Z,0
2023-04-25T02:22:23.092Z,0
2023-04-25T02:23:23.106Z,0
2023-04-25T02:24:23.107Z,0
2023-04-25T02:25:23.118Z,0
2023-04-25T02:26:23.096Z,0
2023-04-25T02:27:23.093Z,0
2023-04-25T02:28:23.106Z,0
2023-04-25T02:29:23.094Z,0
2023-04-25T02:30:23.100Z,0
2023-04-25T02:31:23.178Z,0
2023-04-25T02:32:23.098Z,0
2023-04-25T02:33:23.130Z,0
2023-04-25T02:34:23.097Z,0
2023-04-25T02:35:23.102Z,0
2023-04-25T02:36:23.089Z,0
2023-04-25T02:37:23.105Z,0
2023-04-25T02:38:23.090Z,0
2023-04-25T02:39:23.090Z,0
2023-04-25T02:40:23.100Z,0
2023-04-25T02:41:23.093Z,0
2023-04-25T02:42:23.097Z,0
2023-04-25T02:43:23.104Z,0
2023-04-25T02:44:23.089Z,0
2023-04-25T02:45:23.103Z,0
2023-04-25T02:46:35.894Z,0
2023-04-25T02:47:23.203Z,0
2023-04-25T02:48:23.108Z,0
2023-04-25T02:49:23.103Z,0
2023-04-25T02:50:23.088Z,0
2023-04-25T02:51:23.096Z,0
2023-04-25T02:52:23.089Z,0
2023-04-25T02:53:23.106Z,0
2023-04-25T02:54:23.086Z,0
2023-04-25T02:55:23.093Z,0
2023-04-25T02:56:23.089Z,0
2023-04-25T02:57:23.087Z,0
2023-04-25T02:58:23.115Z,0
2023-04-25T02:59:23.088Z,0
2023-04-25T03:00:23.085Z,0
2023-04-25T03:01:23.155Z,0
2023-04-25T03:02:23.158Z,0
2023-04-25T03:03:23.312Z,0
2023-04-25T03:04:23.122Z,0
2023-04-25T03:05:23.098Z,0
2023-04-25T03:06:23.093Z,0
2023-04-25T03:07:23.089Z,0
2023-04-25T03:08:23.088Z,0
2023-04-25T03:09:23.098Z,0
2023-04-25T03:10:23.104Z,0
2023-04-25T03:11:23.110Z,0
2023-04-25T03:12:23.088Z,0
2023-04-25T03:13:23.108Z,0
2023-04-25T03:14:23.081Z,0
2023-04-25T03:15:23.102Z,0
2023-04-25T03:16:23.117Z,0
2023-04-25T03:17:23.198Z,0
2023-04-25T03:18:23.095Z,0
2023-04-25T03:19:23.100Z,0
2023-04-25T03:20:23.095Z,0
2023-04-25T03:21:23.091Z,0
2023-04-25T03:22:23.094Z,0
2023-04-25T03:23:23.106Z,0
2023-04-25T03:24:23.107Z,0
2023-04-25T03:25:23.099Z,0
2023-04-25T03:26:23.097Z,0
2023-04-25T03:27:23.091Z,0
2023-04-25T03:28:23.116Z,0
2023-04-25T03:29:23.092Z,0
2023-04-25T03:30:23.095Z,0
2023-04-25T03:31:23.112Z,0
2023-04-25T03:32:23.172Z,0
2023-04-25T03:33:23.084Z,0
2023-04-25T03:34:23.097Z,0
2023-04-25T03:35:23.099Z,0
2023-04-25T03:36:23.098Z,0
2023-04-25T03:37:23.087Z,0.01
2023-04-25T03:38:23.097Z,0.01
2023-04-25T03:39:23.103Z,0.01
2023-04-25T03:40:23.094Z,0.01
2023-04-25T03:41:23.093Z,0.01
2023-04-25T03:42:23.084Z,0.01
2023-04-25T03:43:23.093Z,0.02
2023-04-25T03:44:23.097Z,0.02
2023-04-25T03:45:23.104Z,0.02
2023-04-25T03:46:23.227Z,0.02
2023-04-25T03:47:23.110Z,0.03
2023-04-25T03:48:23.096Z,0.03
2023-04-25T03:49:23.092Z,0.03
2023-04-25T03:50:23.111Z,0.04
2023-04-25T03:51:23.104Z,0.04
2023-04-25T03:52:23.081Z,0.04
2023-04-25T03:53:23.138Z,0.05
2023-04-25T03:54:23.095Z,0.05
2023-04-25T03:55:23.093Z,0.05
2023-04-25T03:56:23.089Z,0.06
2023-04-25T03:57:23.096Z,0.06
2023-04-25T03:58:23.099Z,0.06
2023-04-25T03:59:23.077Z,0.07
2023-04-25T04:00:23.109Z,0.07
2023-04-25T04:01:23.094Z,0.08
2023-04-25T04:02:23.171Z,0.08
2023-04-25T04:03:23.268Z,0.09
2023-04-25T04:04:23.357Z,0.09
2023-04-25T04:05:23.269Z,0.1
2023-04-25T04:06:23.083Z,0.1
2023-04-25T04:07:23.094Z,0.11
2023-04-25T04:08:23.083Z,0.11
2023-04-25T04:09:23.098Z,0.12
2023-04-25T04:10:23.100Z,0.12
2023-04-25T04:11:23.087Z,0.13
2023-04-25T04:12:23.084Z,0.14
2023-04-25T04:13:23.161Z,0.14
2023-04-25T04:14:23.108Z,0.15
2023-04-25T04:15:23.103Z,0.16
2023-04-25T04:16:23.134Z,0.17
2023-04-25T04:17:23.106Z,0.17
2023-04-25T04:18:23.095Z,0.18
2023-04-25T04:19:23.090Z,0.19
2023-04-25T04:20:23.092Z,0.2
2023-04-25T04:21:23.088Z,0.21
2023-04-25T04:22:23.088Z,0.22
2023-04-25T04:23:23.086Z,0.22
2023-04-25T04:24:23.090Z,0.23
2023-04-25T04:25:23.085Z,0.23
2023-04-25T04:26:23.086Z,0.24
2023-04-25T04:27:23.087Z,0.26
2023-04-25T04:28:23.093Z,0.28
2023-04-25T04:29:23.107Z,0.29
2023-04-25T04:30:23.083Z,0.3
2023-04-25T04:31:23.115Z,0.31
2023-04-25T04:32:23.123Z,0.31
2023-04-25T04:33:23.099Z,0.32
2023-04-25T04:34:23.102Z,0.33
2023-04-25T04:35:23.100Z,0.34
2023-04-25T04:36:23.088Z,0.35
2023-04-25T04:37:23.093Z,0.36
2023-04-25T04:38:23.101Z,0.38
2023-04-25T04:39:23.097Z,0.39
2023-04-25T04:40:23.111Z,0.41
2023-04-25T04:41:23.097Z,0.42
2023-04-25T04:42:23.085Z,0.42
2023-04-25T04:43:23.102Z,0.43
2023-04-25T04:44:23.088Z,0.43
2023-04-25T04:45:23.102Z,0.45
2023-04-25T04:46:23.145Z,0.46
2023-04-25T04:47:23.154Z,0.46
2023-04-25T04:48:23.102Z,0.47
2023-04-25T04:49:23.092Z,0.48
2023-04-25T04:50:23.089Z,0.48
2023-04-25T04:51:23.102Z,0.49
2023-04-25T04:52:23.096Z,0.49
2023-04-25T04:53:23.116Z,0.5
2023-04-25T04:54:23.111Z,0.5
2023-04-25T04:55:23.106Z,0.5
2023-04-25T04:56:23.096Z,0.5
2023-04-25T04:57:23.092Z,0.5
2023-04-25T04:58:23.101Z,0.5
2023-04-25T04:59:23.110Z,0.51
2023-04-25T05:00:23.082Z,0.52
2023-04-25T05:01:23.203Z,0.53
2023-04-25T05:02:23.163Z,0.55
2023-04-25T05:03:23.224Z,0.57
2023-04-25T05:04:23.172Z,0.59
2023-04-25T05:05:23.093Z,0.6
2023-04-25T05:06:23.092Z,0.61
2023-04-25T05:07:23.085Z,0.61
2023-04-25T05:08:23.082Z,0.6
2023-04-25T05:09:23.093Z,0.6
2023-04-25T05:10:23.086Z,0.59
2023-04-25T05:11:23.097Z,0.59
2023-04-25T05:12:23.097Z,0.59
2023-04-25T05:13:23.091Z,0.6
2023-04-25T05:14:23.104Z,0.62
2023-04-25T05:15:23.086Z,0.63
2023-04-25T05:16:23.134Z,0.69
2023-04-25T05:17:23.129Z,0.72
2023-04-25T05:18:23.832Z,0.73
2023-04-25T05:19:23.119Z,0.71
2023-04-25T05:20:23.095Z,0.67
2023-04-25T05:21:23.094Z,0.66
2023-04-25T05:22:23.090Z,0.67
2023-04-25T05:23:23.095Z,0.67
2023-04-25T05:24:23.104Z,0.69
2023-04-25T05:25:23.105Z,0.7
2023-04-25T05:26:23.088Z,0.7
2023-04-25T05:27:23.094Z,0.73
2023-04-25T05:28:23.094Z,0.76
2023-04-25T05:29:23.099Z,0.81
2023-04-25T05:30:23.091Z,0.88
2023-04-25T05:31:23.153Z,0.94
2023-04-25T05:32:23.154Z,0.98
2023-04-25T05:33:23.108Z,1
2023-04-25T05:34:23.084Z,1.03
2023-04-25T05:35:23.165Z,1.02
2023-04-25T05:36:23.101Z,0.97
2023-04-25T05:37:23.091Z,0.95
2023-04-25T05:38:23.099Z,0.86
2023-04-25T05:39:23.099Z,0.83
2023-04-25T05:40:23.106Z,0.83
2023-04-25T05:41:23.082Z,0.89
2023-04-25T05:42:23.112Z,0.9
2023-04-25T05:43:23.089Z,0.92
2023-04-25T05:44:23.102Z,0.92
2023-04-25T05:45:23.106Z,0.92
2023-04-25T05:46:23.177Z,0.9
2023-04-25T05:47:23.180Z,0.89
2023-04-25T05:48:23.085Z,0.9
2023-04-25T05:49:23.106Z,1.01
2023-04-25T05:50:23.083Z,1.07
2023-04-25T05:51:23.098Z,0.96
2023-04-25T05:52:23.153Z,0.93
2023-04-25T05:53:23.128Z,0.92
2023-04-25T05:54:23.100Z,0.89
2023-04-25T05:55:23.113Z,0.8
2023-04-25T05:56:23.085Z,0.84
2023-04-25T05:57:23.088Z,0.82
2023-04-25T05:58:23.096Z,0.92
2023-04-25T05:59:23.097Z,0.95
2023-04-25T06:00:23.085Z,0.97
2023-04-25T06:01:23.107Z,0.98
2023-04-25T06:02:23.388Z,1
2023-04-25T06:03:23.398Z,1.01
2023-04-25T06:04:23.452Z,1.01
2023-04-25T06:05:23.151Z,1
2023-04-25T06:06:23.100Z,1.01
2023-04-25T06:07:23.092Z,1.02
2023-04-25T06:08:23.096Z,1.03
2023-04-25T06:09:23.091Z,1.04
2023-04-25T06:10:23.080Z,1.05
2023-04-25T06:11:23.080Z,1.06
2023-04-25T06:12:23.085Z,1.07
2023-04-25T06:13:23.083Z,1.1
2023-04-25T06:14:23.788Z,1.15
2023-04-25T06:15:28.607Z,1.18
2023-04-25T06:16:23.131Z,1.2
2023-04-25T06:17:23.099Z,1.24
2023-04-25T06:18:23.115Z,1.35
2023-04-25T06:19:23.093Z,1.32
2023-04-25T06:20:23.090Z,1.4
2023-04-25T06:21:23.074Z,1.31
2023-04-25T06:22:23.080Z,1.31
2023-04-25T06:23:23.090Z,1.44
2023-04-25T06:24:23.102Z,1.49
2023-04-25T06:25:23.097Z,1.5
2023-04-25T06:26:23.100Z,1.62
2023-04-25T06:27:23.088Z,1.65
2023-04-25T06:28:23.106Z,1.59
2023-04-25T06:29:23.096Z,1.58
2023-04-25T06:30:23.096Z,1.49
2023-04-25T06:31:23.131Z,1.38
2023-04-25T06:32:23.101Z,1.47
2023-04-25T06:33:23.097Z,1.5
2023-04-25T06:34:23.097Z,1.52
2023-04-25T06:35:23.118Z,1.58
2023-04-25T06:36:23.095Z,1.65
2023-04-25T06:37:23.082Z,1.6
2023-04-25T06:38:23.100Z,1.63
2023-04-25T06:39:23.139Z,1.63
2023-04-25T06:40:23.103Z,1.72
2023-04-25T06:41:23.090Z,1.65
2023-04-25T06:42:23.107Z,1.99
2023-04-25T06:43:23.102Z,2.45
2023-04-25T06:44:23.098Z,2.45
2023-04-25T06:45:23.113Z,2.01
2023-04-25T06:46:23.090Z,1.62
2023-04-25T06:47:23.126Z,1.85
2023-04-25T06:48:23.093Z,1.5
2023-04-25T06:49:23.087Z,1.33
2023-04-25T06:50:23.113Z,1.61
2023-04-25T06:51:24.323Z,1.79
2023-04-25T06:52:23.086Z,2.22
2023-04-25T06:53:23.102Z,1.42
2023-04-25T06:54:23.113Z,2.17
2023-04-25T06:55:23.107Z,1.72
2023-04-25T06:56:23.095Z,1.84
2023-04-25T06:57:23.097Z,4.67
2023-04-25T06:58:23.087Z,3.8
2023-04-25T06:59:23.098Z,1.95
2023-04-25T07:00:23.082Z,1.66
2023-04-25T07:01:23.276Z,1.84
2023-04-25T07:02:23.175Z,4.73
2023-04-25T07:03:23.261Z,3.91
2023-04-25T07:04:23.348Z,2.81
2023-04-25T07:05:23.089Z,1.69
2023-04-25T07:06:23.107Z,1.72
2023-04-25T07:07:23.089Z,2.74
2023-04-25T07:08:23.095Z,2.45
2023-04-25T07:09:23.091Z,2.61
2023-04-25T07:10:23.091Z,5.51
2023-04-25T07:11:23.102Z,1.74
2023-04-25T07:12:23.093Z,1.59
2023-04-25T07:13:23.101Z,1.81
2023-04-25T07:14:23.090Z,5.66
2023-04-25T07:15:23.092Z,2.82
2023-04-25T07:16:23.165Z,2.32
2023-04-25T07:17:23.214Z,7.15
2023-04-25T07:18:23.099Z,7.4
2023-04-25T07:19:23.107Z,7.12
2023-04-25T07:20:23.080Z,6.84
2023-04-25T07:21:23.097Z,5.59
2023-04-25T07:22:23.101Z,4.83
2023-04-25T07:23:23.103Z,3.26
2023-04-25T07:24:23.115Z,2.42
2023-04-25T07:25:23.092Z,2.85
2023-04-25T07:26:23.127Z,2.81
2023-04-25T07:27:23.088Z,2.08
2023-04-25T07:28:23.087Z,1.62
2023-04-25T07:29:23.096Z,1.54
2023-04-25T07:30:23.085Z,1.57
2023-04-25T07:31:23.125Z,1.58
2023-04-25T07:32:23.178Z,1.68
2023-04-25T07:33:23.096Z,1.66
2023-04-25T07:34:23.099Z,1.9
2023-04-25T07:35:23.099Z,1.61
2023-04-25T07:36:23.116Z,1.59
2023-04-25T07:37:23.097Z,2.71
2023-04-25T07:38:23.087Z,1.95
2023-04-25T07:39:23.093Z,2.71
2023-04-25T07:40:23.082Z,3.22
2023-04-25T07:41:23.112Z,2.74
2023-04-25T07:42:23.094Z,3.31
2023-04-25T07:43:23.100Z,2.41
2023-04-25T07:44:23.091Z,2.41
2023-04-25T07:45:23.101Z,2.63
2023-04-25T07:46:23.130Z,4.35
2023-04-25T07:47:23.117Z,3.11
2023-04-25T07:48:23.085Z,3.38
2023-04-25T07:49:23.090Z,2.75
2023-04-25T07:50:23.082Z,3.63
2023-04-25T07:51:23.123Z,3.03
2023-04-25T07:52:23.095Z,3.2
2023-04-25T07:53:23.098Z,2.59
2023-04-25T07:54:23.096Z,3.16
2023-04-25T07:55:23.084Z,4.67
2023-04-25T07:56:23.109Z,6.23
2023-04-25T07:57:23.098Z,3.84
2023-04-25T07:58:23.197Z,3.39
2023-04-25T07:59:23.090Z,2.91
2023-04-25T08:00:23.163Z,2.91
2023-04-25T08:01:23.099Z,3.12
2023-04-25T08:02:23.163Z,3.56
2023-04-25T08:03:23.294Z,2.53
2023-04-25T08:04:23.232Z,2.3
2023-04-25T08:05:23.282Z,1.91
2023-04-25T08:06:23.402Z,1.6
2023-04-25T08:07:23.089Z,1.49
2023-04-25T08:08:23.087Z,1.52
2023-04-25T08:09:23.097Z,1.64
2023-04-25T08:10:23.124Z,1.84
2023-04-25T08:11:23.099Z,2.12
2023-04-25T08:12:23.555Z,2.69
2023-04-25T08:13:23.091Z,2.43
2023-04-25T08:14:23.092Z,2.56
2023-04-25T08:15:23.094Z,2.8
2023-04-25T08:16:23.218Z,3.15
2023-04-25T08:17:23.095Z,3
2023-04-25T08:18:23.170Z,2.93
2023-04-25T08:19:23.091Z,2.94
2023-04-25T08:20:23.127Z,2.81
2023-04-25T08:21:23.099Z,2.79
2023-04-25T08:22:23.093Z,2.54
2023-04-25T08:23:23.090Z,2.3
2023-04-25T08:24:23.098Z,2.24
2023-04-25T08:25:23.102Z,2.2
2023-04-25T08:26:23.108Z,2.13
2023-04-25T08:27:23.101Z,2.08
2023-04-25T08:28:23.115Z,2.16
2023-04-25T08:29:23.089Z,2.43
2023-04-25T08:30:23.082Z,3.71
2023-04-25T08:31:23.117Z,2.67
2023-04-25T08:32:23.085Z,3.65
2023-04-25T08:33:23.122Z,5.54
2023-04-25T08:34:23.086Z,3.51
2023-04-25T08:35:23.100Z,3.75
2023-04-25T08:36:37.717Z,5.74
2023-04-25T08:37:23.088Z,2.3
2023-04-25T08:38:23.097Z,2.26
2023-04-25T08:39:23.120Z,7.49
2023-04-25T08:40:23.079Z,7.9
2023-04-25T08:41:23.100Z,5.45
2023-04-25T08:42:23.109Z,9.59
2023-04-25T08:43:23.092Z,9.77
2023-04-25T08:44:23.096Z,9.77
2023-04-25T08:45:23.252Z,8.29
2023-04-25T08:46:23.181Z,8.57
2023-04-25T08:47:23.138Z,8.52
2023-04-25T08:48:23.088Z,8.73
2023-04-25T08:49:23.079Z,7.73
2023-04-25T08:50:23.087Z,5.07
2023-04-25T08:51:23.274Z,2.67
2023-04-25T08:52:23.109Z,6.49
2023-04-25T08:53:23.086Z,3.03
2023-04-25T08:54:34.332Z,10.86
2023-04-25T08:55:23.093Z,10.9
2023-04-25T08:56:23.089Z,3.74
2023-04-25T08:57:23.097Z,11.12
2023-04-25T08:58:23.093Z,9.73
2023-04-25T08:59:23.085Z,9.15
2023-04-25T09:00:23.080Z,2.99
2023-04-25T09:01:23.232Z,2.58
2023-04-25T09:02:23.181Z,2.39
2023-04-25T09:03:23.308Z,3.52
2023-04-25T09:04:23.124Z,9.42
2023-04-25T09:05:23.086Z,8.49
2023-04-25T09:06:23.088Z,10.2
2023-04-25T09:07:23.104Z,13.31
2023-04-25T09:08:23.104Z,13.49
2023-04-25T09:09:23.084Z,9.88
2023-04-25T09:10:23.085Z,3.73
2023-04-25T09:11:23.680Z,7.73
2023-04-25T09:12:23.106Z,10.92
2023-04-25T09:13:23.094Z,12.39
2023-04-25T09:14:23.100Z,2.59
2023-04-25T09:15:23.087Z,2.46
2023-04-25T09:16:23.195Z,2.17
2023-04-25T09:17:23.184Z,2.1
2023-04-25T09:19:28.363Z,2.67
2023-04-25T09:20:23.086Z,10.68
2023-04-25T09:21:23.129Z,9.2
2023-04-25T09:22:23.087Z,9.08
2023-04-25T09:23:23.113Z,9.71
2023-04-25T09:24:23.089Z,3.54
2023-04-25T09:25:23.088Z,3.35
2023-04-25T09:26:23.080Z,13.6
2023-04-25T09:27:23.095Z,3.35
2023-04-25T09:28:23.098Z,4.24
2023-04-25T09:29:23.112Z,5.99
2023-04-25T09:30:23.078Z,5.89
2023-04-25T09:31:23.122Z,11.07
2023-04-25T09:32:23.285Z,12.56
2023-04-25T09:33:23.146Z,14.25
2023-04-25T09:34:23.088Z,14.01
2023-04-25T09:35:23.096Z,11.88
2023-04-25T09:36:23.083Z,10.63
2023-04-25T09:37:23.086Z,11.02
2023-04-25T09:38:23.110Z,12.51
2023-04-25T09:39:23.091Z,11.27
2023-04-25T09:40:23.084Z,13.49
2023-04-25T09:41:23.089Z,14.45
2023-04-25T09:42:23.086Z,3.94
2023-04-25T09:43:23.125Z,3
2023-04-25T09:44:23.108Z,3
2023-04-25T09:45:23.098Z,2.17
2023-04-25T09:46:23.145Z,1.89
2023-04-25T09:47:23.195Z,1.67
2023-04-25T09:48:23.114Z,1.61
2023-04-25T09:49:23.102Z,1.64
2023-04-25T09:50:23.075Z,1.76
2023-04-25T09:51:23.086Z,2.04
2023-04-25T09:52:25.346Z,2.44
2023-04-25T09:53:23.087Z,2.75
2023-04-25T09:54:23.099Z,8.15
2023-04-25T09:55:23.098Z,9.5
2023-04-25T09:56:23.098Z,3.55
2023-04-25T09:57:23.091Z,3.58
2023-04-25T09:58:23.097Z,3.18
2023-04-25T09:59:23.100Z,3.38
2023-04-25T10:00:23.096Z,3.76
2023-04-25T10:01:23.170Z,2.88
2023-04-25T10:02:23.299Z,2.47
2023-04-25T10:03:23.337Z,2.17
2023-04-25T10:04:23.202Z,1.95
2023-04-25T10:05:23.096Z,1.81
2023-04-25T10:06:23.096Z,1.72
2023-04-25T10:07:23.087Z,1.7
2023-04-25T10:08:23.101Z,1.84
2023-04-25T10:09:23.095Z,2.29
2023-04-25T10:10:23.089Z,2.62
2023-04-25T10:11:23.094Z,3.11
2023-04-25T10:12:23.091Z,4.22
2023-04-25T10:13:23.090Z,4.07
2023-04-25T10:14:23.099Z,3.27
2023-04-25T10:15:23.113Z,2.79
2023-04-25T10:16:23.219Z,2.74
2023-04-25T10:17:23.093Z,2.71
2023-04-25T10:18:23.089Z,2.59
2023-04-25T10:19:23.114Z,2.48
2023-04-25T10:20:23.075Z,2.37
2023-04-25T10:21:23.099Z,2.4
2023-04-25T10:22:23.094Z,2.53
2023-04-25T10:23:23.107Z,2.79
2023-04-25T10:24:23.092Z,3.29
2023-04-25T10:25:23.092Z,3.09
2023-04-25T10:26:23.093Z,2.7
2023-04-25T10:27:23.095Z,2.54
2023-04-25T10:28:23.121Z,2.42
2023-04-25T10:29:23.104Z,2.34
2023-04-25T10:30:23.089Z,2.31
2023-04-25T10:31:23.209Z,2.15
2023-04-25T10:32:23.155Z,1.94
2023-04-25T10:33:23.081Z,1.78
2023-04-25T10:34:23.111Z,1.69
2023-04-25T10:35:23.097Z,1.69
2023-04-25T10:36:23.103Z,1.74
2023-04-25T10:37:23.095Z,1.81
2023-04-25T10:38:23.089Z,1.67
2023-04-25T10:39:23.106Z,1.68
2023-04-25T10:40:23.101Z,1.78
2023-04-25T10:41:23.098Z,1.97
2023-04-25T10:42:23.098Z,2.17
2023-04-25T10:43:23.092Z,2.36
2023-04-25T10:44:23.086Z,2.36
2023-04-25T10:45:23.117Z,2.71
2023-04-25T10:46:23.127Z,2.42
2023-04-25T10:47:23.137Z,2.22
2023-04-25T10:48:23.089Z,2.11
2023-04-25T10:49:23.105Z,2.19
2023-04-25T10:50:23.082Z,2.57
2023-04-25T10:51:23.082Z,2.43
2023-04-25T10:52:23.098Z,2.09
2023-04-25T10:53:23.091Z,1.96
2023-04-25T10:54:23.080Z,1.99
2023-04-25T10:55:23.090Z,2.14
2023-04-25T10:56:23.097Z,2.54
2023-04-25T10:57:23.093Z,4.69
2023-04-25T10:58:23.092Z,5.09
2023-04-25T10:59:23.084Z,4.98
2023-04-25T11:00:25.669Z,10.41
2023-04-25T11:01:23.129Z,3.94
2023-04-25T11:02:23.231Z,4.28
2023-04-25T11:03:23.396Z,4.05
2023-04-25T11:04:23.450Z,7.41
2023-04-25T11:05:23.112Z,4.32
2023-04-25T11:06:23.099Z,3.87
2023-04-25T11:07:23.086Z,3.27
2023-04-25T11:08:23.087Z,2.97
2023-04-25T11:09:23.089Z,2.77
2023-04-25T11:10:23.094Z,2.63
2023-04-25T11:11:23.093Z,2.57
2023-04-25T11:12:23.099Z,2.46
2023-04-25T11:13:23.101Z,2.53
2023-04-25T11:14:23.092Z,2.63
2023-04-25T11:15:23.096Z,2.96
2023-04-25T11:16:28.259Z,3.03
2023-04-25T11:17:23.183Z,12.12
2023-04-25T11:18:23.148Z,11.35
2023-04-25T11:19:23.109Z,11.86
2023-04-25T11:20:23.078Z,12.94
2023-04-25T11:21:23.104Z,13.17
2023-04-25T11:22:23.101Z,11.56
2023-04-25T11:23:23.085Z,2.66
2023-04-25T11:24:23.089Z,2.45
2023-04-25T11:25:23.085Z,2.36
2023-04-25T11:26:23.100Z,2.34
2023-04-25T11:27:23.107Z,2.48
2023-04-25T11:28:23.141Z,2.48
2023-04-25T11:29:23.097Z,2.6
2023-04-25T11:30:23.088Z,2.85
2023-04-25T11:31:23.115Z,2.61
2023-04-25T11:32:24.232Z,2.47
2023-04-25T11:33:23.175Z,2.36
2023-04-25T11:34:23.101Z,2.31
2023-04-25T11:35:23.103Z,2.36
2023-04-25T11:36:23.101Z,2.6
2023-04-25T11:37:23.099Z,9.94
2023-04-25T11:38:25.281Z,3.39
2023-04-25T11:39:23.089Z,3.59
2023-04-25T11:40:23.079Z,4
2023-04-25T11:41:23.175Z,5.14
2023-04-25T11:42:23.101Z,7.43
2023-04-25T11:43:23.090Z,4.9
2023-04-25T11:44:23.094Z,4.9
2023-04-25T11:45:23.082Z,3.35
2023-04-25T11:46:23.117Z,3.13
2023-04-25T11:47:23.099Z,11.38
2023-04-25T11:48:26.347Z,3.12
2023-04-25T11:49:23.137Z,2.94
2023-04-25T11:50:23.122Z,2.92
2023-04-25T11:51:23.098Z,2.7
2023-04-25T11:52:23.099Z,2.61
2023-04-25T11:53:23.087Z,2.61
2023-04-25T11:54:23.140Z,2.53
2023-04-25T11:55:23.092Z,2.37
2023-04-25T11:56:23.094Z,2.25
2023-04-25T11:57:23.090Z,2.16
2023-04-25T11:58:23.090Z,2.05
2023-04-25T11:59:23.094Z,2.01
2023-04-25T12:00:23.085Z,2.06
2023-04-25T12:01:23.103Z,2.22
2023-04-25T12:02:23.152Z,2.41
2023-04-25T12:03:23.312Z,2.77
2023-04-25T12:04:23.553Z,3.34
2023-04-25T12:05:32.055Z,4.09
2023-04-25T12:06:24.498Z,4.31
2023-04-25T12:07:23.095Z,4.35
2023-04-25T12:08:23.094Z,4.45
2023-04-25T12:09:23.091Z,5.38
2023-04-25T12:10:23.107Z,4.81
2023-04-25T12:11:23.116Z,4.49
2023-04-25T12:12:23.094Z,5.48
2023-04-25T12:13:23.088Z,9.66
2023-04-25T12:14:23.113Z,6.2
2023-04-25T12:15:23.099Z,6.82
2023-04-25T12:16:23.142Z,6.34
2023-04-25T12:17:23.086Z,11.97
2023-04-25T12:18:23.091Z,5.69
2023-04-25T12:19:23.088Z,5.16
2023-04-25T12:20:23.111Z,3.58
2023-04-25T12:21:23.111Z,4.21
2023-04-25T12:22:23.136Z,3.47
2023-04-25T12:23:23.088Z,5.29
2023-04-25T12:24:23.097Z,3.31
2023-04-25T12:25:23.097Z,2.63
2023-04-25T12:26:23.104Z,2.14
2023-04-25T12:27:23.086Z,1.8
2023-04-25T12:28:23.106Z,1.61
2023-04-25T12:29:23.815Z,1.49
2023-04-25T12:30:23.075Z,1.4
2023-04-25T12:31:23.155Z,1.31
2023-04-25T12:32:23.148Z,1.22
2023-04-25T12:33:23.103Z,1.1
2023-04-25T12:34:23.091Z,1.01
2023-04-25T12:35:23.100Z,0.99
2023-04-25T12:36:23.104Z,1.04
2023-04-25T12:37:23.156Z,1.12
2023-04-25T12:38:23.103Z,1.15
2023-04-25T12:39:23.110Z,1.15
2023-04-25T12:40:23.085Z,1.16
2023-04-25T12:41:23.107Z,1.18
2023-04-25T12:42:23.095Z,1.2
2023-04-25T12:43:23.095Z,1.33
2023-04-25T12:44:23.107Z,1.33
2023-04-25T12:45:28.510Z,1.72
2023-04-25T12:46:27.478Z,1.72
2023-04-25T12:47:27.484Z,1.94
2023-04-25T12:48:27.422Z,2.6
2023-04-25T12:49:27.432Z,2.02
2023-04-25T12:50:27.426Z,1.49
2023-04-25T12:51:27.418Z,1.22
2023-04-25T12:52:27.441Z,1.12
2023-04-25T12:53:27.459Z,1.06
2023-04-25T12:54:27.440Z,0.99
2023-04-25T12:55:27.411Z,0.9
2023-04-25T12:56:27.434Z,0.8
2023-04-25T12:57:27.434Z,0.7
2023-04-25T12:58:27.415Z,0.62
2023-04-25T12:59:27.407Z,0.55
2023-04-25T13:00:27.496Z,0.51
2023-04-25T13:01:27.465Z,0.48
2023-04-25T13:02:27.607Z,0.47
2023-04-25T13:03:27.512Z,0.45
2023-04-25T13:04:27.702Z,0.44
2023-04-25T13:05:27.415Z,0.44
2023-04-25T13:06:27.470Z,0.45
2023-04-25T13:07:27.410Z,0.46
2023-04-25T13:08:27.413Z,0.5
2023-04-25T13:09:27.410Z,0.56
2023-04-25T13:10:27.406Z,0.65
2023-04-25T13:11:27.439Z,0.73
2023-04-25T13:12:27.414Z,0.8
2023-04-25T13:13:27.401Z,0.86
2023-04-25T13:14:27.483Z,0.91
2023-04-25T13:15:27.426Z,0.98
2023-04-25T13:16:27.452Z,1.09
2023-04-25T13:17:28.722Z,1.23
2023-04-25T13:18:27.411Z,1.43
2023-04-25T13:19:27.409Z,1.64
2023-04-25T13:20:27.452Z,1.81
2023-04-25T13:21:27.427Z,1.86
2023-04-25T13:22:27.485Z,1.79
2023-04-25T13:23:27.412Z,1.74
2023-04-25T13:24:27.411Z,1.6
2023-04-25T13:25:27.440Z,1.48
2023-04-25T13:26:27.436Z,1.41
2023-04-25T13:27:27.429Z,1.48
2023-04-25T13:28:27.413Z,1.32
2023-04-25T13:29:27.407Z,1.28
2023-04-25T13:30:27.409Z,1.44
2023-04-25T13:31:27.440Z,1.52
2023-04-25T13:32:27.463Z,1.59
2023-04-25T13:33:27.397Z,1.67
2023-04-25T13:34:27.413Z,1.78
2023-04-25T13:35:27.426Z,1.79
2023-04-25T13:36:27.433Z,1.72
2023-04-25T13:37:27.404Z,1.62
2023-04-25T13:38:27.412Z,1.44
2023-04-25T13:39:27.408Z,1.49
2023-04-25T13:40:27.411Z,1.57
2023-04-25T13:41:27.420Z,1.59
2023-04-25T13:42:27.416Z,1.64
2023-04-25T13:43:27.412Z,1.76